TimeMDT,TemperatureF,Dew PointF,Humidity,Sea Level PressureIn,VisibilityMPH,Wind Direction,Wind SpeedMPH,Gust SpeedMPH,PrecipitationIn,Events,Conditions,WindDirDegrees,DateUTC
12:53 AM,32.0,25.0,75,30.07,10.0,South,8.1,-,N/A,,Clear,170,2013-03-28 06:53:00
1:53 AM,30.9,24.1,76,30.06,10.0,SSE,5.8,-,N/A,,Clear,160,2013-03-28 07:53:00
2:53 AM,28.0,23.0,81,30.05,10.0,SSE,9.2,-,N/A,,Clear,160,2013-03-28 08:53:00
3:53 AM,33.1,27.0,78,30.02,10.0,SSE,6.9,-,N/A,,Mostly Cloudy,160,2013-03-28 09:53:00
4:53 AM,30.9,26.1,82,30.02,10.0,SSE,6.9,-,N/A,,Overcast,160,2013-03-28 10:53:00
5:53 AM,27.0,24.1,89,30.03,10.0,SSE,9.2,-,N/A,,Clear,160,2013-03-28 11:53:00
6:53 AM,25.0,21.9,88,30.06,10.0,South,8.1,-,N/A,,Clear,170,2013-03-28 12:53:00
7:53 AM,34.0,28.9,82,30.08,10.0,Calm,Calm,-,N/A,,Clear,0,2013-03-28 13:53:00
8:53 AM,44.1,30.9,60,30.05,10.0,West,5.8,-,N/A,,Clear,270,2013-03-28 14:53:00
9:53 AM,51.1,30.9,46,30.03,10.0,WNW,10.4,-,N/A,,Clear,300,2013-03-28 15:53:00
10:53 AM,57.9,28.9,33,30.04,10.0,NW,10.4,-,N/A,,Clear,320,2013-03-28 16:53:00
11:53 AM,62.1,28.9,29,30.02,10.0,NNE,9.2,-,N/A,,Clear,20,2013-03-28 17:53:00
12:53 PM,64.0,24.1,22,30.01,10.0,WSW,10.4,17.3,N/A,,Partly Cloudy,240,2013-03-28 18:53:00
1:53 PM,63.0,23.0,22,30.01,10.0,NE,6.9,20.7,N/A,,Mostly Cloudy,40,2013-03-28 19:53:00
2:53 PM,66.9,21.0,17,30.00,10.0,NNW,12.7,16.1,N/A,,Mostly Cloudy,340,2013-03-28 20:53:00
3:53 PM,63.0,23.0,22,30.00,10.0,NNE,8.1,20.7,N/A,,Mostly Cloudy,30,2013-03-28 21:53:00
4:53 PM,63.0,21.9,21,30.00,10.0,North,6.9,-,N/A,,Overcast,360,2013-03-28 22:53:00
5:53 PM,64.0,21.9,20,30.02,10.0,NNE,9.2,-,N/A,,Mostly Cloudy,20,2013-03-28 23:53:00
6:53 PM,55.9,23.0,28,30.06,10.0,East,8.1,-,N/A,,Clear,80,2013-03-29 00:53:00
7:53 PM,45.0,24.1,44,30.08,10.0,East,10.4,-,N/A,,Clear,80,2013-03-29 01:53:00
8:53 PM,39.9,23.0,51,30.09,10.0,ESE,6.9,-,N/A,,Clear,110,2013-03-29 02:53:00
9:53 PM,36.0,23.0,59,30.10,10.0,ESE,5.8,-,N/A,,Clear,120,2013-03-29 03:53:00
10:53 PM,37.0,24.1,59,30.09,10.0,SSE,6.9,-,N/A,,Partly Cloudy,160,2013-03-29 04:53:00
11:53 PM,39.9,25.0,55,30.07,10.0,ESE,3.5,-,N/A,,Clear,110,2013-03-29 05:53:00